createdAt,value
2018-11-20T00:00:15.891Z,5.12
2018-11-20T00:01:15.896Z,5.32
2018-11-20T00:02:15.855Z,5.12
2018-11-20T00:03:15.838Z,5.02
2018-11-20T00:04:15.833Z,5.32
2018-11-20T00:05:15.912Z,5.12
2018-11-20T00:06:15.825Z,5.02
2018-11-20T00:07:15.808Z,4.93
2018-11-20T00:08:15.831Z,5.02
2018-11-20T00:09:15.793Z,4.93
2018-11-20T00:10:16.121Z,4.93
2018-11-20T00:11:15.814Z,5.22
2018-11-20T00:12:15.780Z,5.02
2018-11-20T00:13:15.763Z,5.02
2018-11-20T00:14:15.789Z,5.12
2018-11-20T00:15:16.095Z,5.02
2018-11-20T00:16:15.781Z,4.93
2018-11-20T00:17:15.777Z,4.93
2018-11-20T00:18:15.765Z,5.12
2018-11-20T00:19:15.757Z,5.02
2018-11-20T00:20:15.715Z,4.64
2018-11-20T00:21:15.727Z,4.93
2018-11-20T00:22:15.742Z,5.02
2018-11-20T00:23:15.697Z,5.02
2018-11-20T00:24:16.022Z,5.32
2018-11-20T00:25:15.714Z,4.83
2018-11-20T00:26:16.028Z,4.83
2018-11-20T00:27:16.034Z,4.93
2018-11-20T00:28:15.702Z,4.83
2018-11-20T00:29:15.660Z,4.93
2018-11-20T00:30:15.991Z,4.83
2018-11-20T00:31:15.642Z,4.83
2018-11-20T00:32:15.636Z,4.44
2018-11-20T00:33:15.630Z,4.44
2018-11-20T00:34:15.641Z,4.74
2018-11-20T00:35:15.602Z,4.35
2018-11-20T00:36:15.601Z,4.74
2018-11-20T00:37:15.939Z,4.64
2018-11-20T00:38:15.586Z,4.74
2018-11-20T00:39:15.609Z,4.64
2018-11-20T00:40:15.570Z,4.54
2018-11-20T00:41:15.563Z,4.83
2018-11-20T00:42:15.584Z,4.83
2018-11-20T00:43:15.902Z,4.74
2018-11-20T00:44:15.928Z,4.64
2018-11-20T00:45:15.540Z,4.64
2018-11-20T00:46:15.517Z,4.64
2018-11-20T00:47:15.847Z,4.54
2018-11-20T00:48:15.852Z,4.83
2018-11-20T00:49:15.531Z,4.74
2018-11-20T00:50:15.859Z,4.74
2018-11-20T00:51:15.497Z,4.74
2018-11-20T00:52:15.513Z,4.74
2018-11-20T00:53:15.479Z,4.74
2018-11-20T00:54:15.821Z,4.25
2018-11-20T00:55:15.472Z,4.74
2018-11-20T00:56:15.488Z,4.64
2018-11-20T00:57:15.788Z,4.64
2018-11-20T00:58:15.435Z,4.25
2018-11-20T00:59:15.803Z,4.74
2018-11-20T01:00:15.455Z,4.74
2018-11-20T01:01:15.785Z,4.64
2018-11-20T01:02:15.422Z,4.74
2018-11-20T01:03:15.433Z,4.74
2018-11-20T01:04:15.401Z,4.74
2018-11-20T01:05:15.410Z,4.74
2018-11-20T01:06:15.384Z,4.64
2018-11-20T01:07:15.374Z,4.64
2018-11-20T01:08:15.741Z,4.64
2018-11-20T01:09:15.385Z,4.54
2018-11-20T01:10:15.384Z,4.74
2018-11-20T01:11:15.356Z,4.64
2018-11-20T01:12:15.686Z,4.74
2018-11-20T01:13:15.317Z,4.54
2018-11-20T01:14:15.318Z,4.74
2018-11-20T01:15:15.652Z,4.74
2018-11-20T01:16:15.339Z,4.44
2018-11-20T01:17:15.339Z,4.45
2018-11-20T01:18:15.309Z,4.16
2018-11-20T01:19:15.277Z,4.45
2018-11-20T01:20:15.287Z,4.25
2018-11-20T01:21:15.266Z,4.35
2018-11-20T01:22:15.288Z,4.35
2018-11-20T01:23:15.272Z,4.25
2018-11-20T01:24:15.282Z,4.16
2018-11-20T01:25:15.238Z,4.45
2018-11-20T01:26:15.232Z,4.74
2018-11-20T01:27:15.227Z,4.64
2018-11-20T01:28:15.547Z,4.64
2018-11-20T01:29:15.541Z,4.74
2018-11-20T01:30:15.199Z,4.64
2018-11-20T01:31:15.196Z,4.74
2018-11-20T01:32:15.177Z,4.83
2018-11-20T01:33:15.210Z,4.64
2018-11-20T01:34:15.176Z,4.74
2018-11-20T01:35:15.524Z,4.64
2018-11-20T01:36:15.535Z,4.55
2018-11-20T01:37:15.259Z,4.55
2018-11-20T01:38:15.148Z,4.64
2018-11-20T01:39:15.470Z,4.55
2018-11-20T01:40:15.140Z,4.16
2018-11-20T01:41:15.503Z,4.25
2018-11-20T01:42:15.468Z,4.25
2018-11-20T01:43:15.437Z,3.87
2018-11-20T01:44:15.680Z,4.16
2018-11-20T01:45:15.084Z,4.25
2018-11-20T01:46:15.110Z,4.45
2018-11-20T01:47:15.117Z,4.25
2018-11-20T01:48:15.078Z,4.25
2018-11-20T01:49:15.064Z,4.25
2018-11-20T01:50:15.083Z,4.25
2018-11-20T01:51:15.068Z,4.16
2018-11-20T01:52:15.042Z,4.35
2018-11-20T01:53:15.043Z,4.25
2018-11-20T01:54:15.027Z,4.25
2018-11-20T01:55:15.032Z,4.25
2018-11-20T01:56:15.014Z,4.16
2018-11-20T01:57:15.035Z,4.25
2018-11-20T01:59:15.036Z,4.16
2018-11-20T02:00:15.002Z,4.06
2018-11-20T02:01:14.984Z,4.16
2018-11-20T02:02:15.003Z,3.96
2018-11-20T02:03:15.336Z,3.96
2018-11-20T02:04:15.043Z,3.87
2018-11-20T02:05:14.979Z,3.87
2018-11-20T02:06:14.930Z,3.96
2018-11-20T02:07:14.963Z,4.06
2018-11-20T02:08:14.911Z,3.96
2018-11-20T02:09:15.832Z,3.77
2018-11-20T02:10:15.234Z,3.87
2018-11-20T02:11:14.894Z,3.96
2018-11-20T02:12:15.285Z,3.96
2018-11-20T02:13:15.267Z,3.96
2018-11-20T02:14:15.256Z,4.06
2018-11-20T02:15:14.920Z,3.96
2018-11-20T02:16:15.473Z,4.06
2018-11-20T02:17:14.862Z,4.06
2018-11-20T02:18:14.850Z,4.06
2018-11-20T02:19:14.877Z,4.06
2018-11-20T02:20:15.194Z,4.06
2018-11-20T02:21:14.825Z,4.06
2018-11-20T02:22:14.857Z,4.06
2018-11-20T02:23:14.848Z,3.96
2018-11-20T02:24:14.857Z,3.96
2018-11-20T02:25:14.840Z,3.96
2018-11-20T02:26:14.830Z,3.96
2018-11-20T02:27:14.784Z,3.96
2018-11-20T02:29:46.474Z,4.16
2018-11-20T02:30:46.200Z,4.06
2018-11-20T02:32:38.291Z,4.35
2018-11-20T02:33:38.139Z,4.25
2018-11-20T02:35:31.899Z,4.64
2018-11-20T02:36:30.487Z,4.35
2018-11-20T02:38:22.398Z,4.45
2018-11-20T02:39:22.384Z,4.74
2018-11-20T02:41:14.953Z,4.64
2018-11-20T02:42:14.679Z,4.55
2018-11-20T02:44:07.051Z,4.64
2018-11-20T02:45:07.338Z,4.64
2018-11-20T02:46:59.903Z,4.64
2018-11-20T02:47:59.688Z,4.64
2018-11-20T02:49:52.132Z,4.74
2018-11-20T02:50:51.801Z,4.64
2018-11-20T02:52:44.375Z,4.83
2018-11-20T02:53:44.138Z,4.74
2018-11-20T02:55:36.480Z,4.83
2018-11-20T02:56:36.436Z,5.03
2018-11-20T02:58:29.407Z,5.03
2018-11-20T02:59:28.817Z,4.93
2018-11-20T03:01:21.142Z,5.03
2018-11-20T03:02:21.134Z,4.93
2018-11-20T03:04:13.649Z,5.22
2018-11-20T03:05:13.480Z,5.32
2018-11-20T03:07:06.798Z,5.51
2018-11-20T03:08:06.813Z,5.03
2018-11-20T03:10:00.265Z,4.83
2018-11-20T03:10:59.149Z,5.03
2018-11-20T03:12:51.873Z,5.13
2018-11-20T03:13:51.851Z,5.13
2018-11-20T03:14:51.554Z,5.13
2018-11-20T03:15:51.504Z,5.22
2018-11-20T03:16:51.837Z,5.32
2018-11-20T03:17:51.498Z,5.51
2018-11-20T03:18:51.524Z,5.61
2018-11-20T03:19:51.822Z,5.51
2018-11-20T03:20:51.497Z,5.32
2018-11-20T03:21:51.460Z,5.51
2018-11-20T03:22:51.456Z,5.32
2018-11-20T03:23:51.493Z,5.42
2018-11-20T03:24:51.437Z,5.51
2018-11-20T03:25:51.484Z,5.61
2018-11-20T03:26:51.463Z,5.90
2018-11-20T03:27:51.424Z,5.80
2018-11-20T03:28:51.436Z,5.90
2018-11-20T03:29:51.417Z,5.90
2018-11-20T03:30:51.426Z,5.90
2018-11-20T03:31:51.388Z,6.10
2018-11-20T03:32:51.720Z,5.90
2018-11-20T03:33:51.424Z,5.90
2018-11-20T03:34:51.392Z,6.00
2018-11-20T03:35:51.368Z,5.90
2018-11-20T03:36:51.708Z,6.10
2018-11-20T03:37:51.339Z,6.00
2018-11-20T03:38:51.355Z,6.10
2018-11-20T03:39:51.366Z,6.20
2018-11-20T03:40:51.368Z,6.20
2018-11-20T03:41:51.684Z,6.00
2018-11-20T03:42:51.322Z,6.00
2018-11-20T03:43:51.327Z,6.20
2018-11-20T03:44:51.294Z,6.10
2018-11-20T03:45:51.652Z,6.00
2018-11-20T03:46:51.657Z,6.00
2018-11-20T03:47:51.428Z,6.00
2018-11-20T03:48:51.636Z,6.10
2018-11-20T03:49:51.290Z,6.00
2018-11-20T03:50:51.265Z,5.90
2018-11-20T03:51:51.288Z,5.90
2018-11-20T03:52:51.252Z,5.90
2018-11-20T03:53:51.570Z,5.90
2018-11-20T03:54:51.576Z,6.10
2018-11-20T03:55:51.331Z,6.00
2018-11-20T03:56:51.565Z,5.90
2018-11-20T03:57:51.581Z,5.90
2018-11-20T03:58:51.199Z,6.00
2018-11-20T03:59:51.185Z,6.00
2018-11-20T04:00:51.227Z,6.00
2018-11-20T04:01:51.541Z,5.71
2018-11-20T04:02:51.243Z,5.90
2018-11-20T04:03:51.188Z,5.80
2018-11-20T04:04:51.177Z,5.71
2018-11-20T04:05:51.137Z,5.71
2018-11-20T04:06:51.136Z,5.61
2018-11-20T04:07:51.137Z,5.90
2018-11-20T04:08:51.156Z,6.00
2018-11-20T04:09:51.146Z,5.90
2018-11-20T04:10:51.138Z,6.00
2018-11-20T04:11:51.096Z,5.80
2018-11-20T04:12:51.119Z,5.80
2018-11-20T04:13:51.083Z,5.51
2018-11-20T04:14:51.125Z,5.80
2018-11-20T04:15:51.409Z,5.71
2018-11-20T04:16:51.455Z,5.61
2018-11-20T04:17:51.132Z,5.61
2018-11-20T04:18:51.429Z,5.80
2018-11-20T04:19:51.073Z,5.71
2018-11-20T04:20:51.070Z,5.90
2018-11-20T04:21:51.032Z,5.90
2018-11-20T04:22:51.031Z,6.00
2018-11-20T04:23:51.056Z,5.80
2018-11-20T04:24:51.065Z,6.00
2018-11-20T04:25:50.999Z,5.90
2018-11-20T04:26:51.004Z,5.90
2018-11-20T04:27:50.974Z,6.00
2018-11-20T04:28:50.971Z,6.00
2018-11-20T04:29:51.005Z,6.00
2018-11-20T04:30:50.975Z,6.10
2018-11-20T04:31:50.980Z,6.20
2018-11-20T04:32:50.983Z,6.00
2018-11-20T04:33:50.972Z,6.10
2018-11-20T04:34:50.928Z,6.10
2018-11-20T04:35:51.272Z,6.00
2018-11-20T04:36:51.263Z,5.90
2018-11-20T04:37:51.252Z,6.20
2018-11-20T04:38:50.949Z,6.10
2018-11-20T04:39:50.928Z,5.90
2018-11-20T04:40:50.935Z,5.80
2018-11-20T04:41:51.272Z,5.90
2018-11-20T04:42:50.908Z,6.10
2018-11-20T04:43:50.903Z,6.20
2018-11-20T04:44:50.871Z,6.00
2018-11-20T04:45:50.867Z,6.20
2018-11-20T04:46:50.859Z,6.10
2018-11-20T04:47:50.883Z,5.90
2018-11-20T04:48:51.173Z,5.90
2018-11-20T04:53:15.726Z,5.71
2018-11-20T04:54:15.867Z,5.90
2018-11-20T04:56:07.882Z,5.90
2018-11-20T04:57:07.836Z,6.10
2018-11-20T04:59:00.399Z,6.00
2018-11-20T05:00:00.164Z,6.00
2018-11-20T05:01:52.848Z,5.90
2018-11-20T05:02:52.492Z,5.80
2018-11-20T05:04:45.074Z,5.90
2018-11-20T05:05:44.887Z,5.90
2018-11-20T05:06:44.865Z,5.90
2018-11-20T05:07:44.790Z,6.00
2018-11-20T05:08:45.157Z,6.20
2018-11-20T05:09:44.856Z,6.00
2018-11-20T05:10:45.104Z,6.00
2018-11-20T05:11:44.767Z,6.00
2018-11-20T05:12:44.800Z,6.00
2018-11-20T05:13:44.760Z,6.10
2018-11-20T05:14:44.743Z,6.00
2018-11-20T05:15:44.748Z,6.00
2018-11-20T05:16:44.729Z,6.10
2018-11-20T05:17:44.740Z,6.20
2018-11-20T05:18:44.724Z,6.00
2018-11-20T05:19:44.754Z,6.29
2018-11-20T05:20:45.036Z,6.20
2018-11-20T05:21:45.061Z,6.29
2018-11-20T05:22:44.733Z,6.10
2018-11-20T05:23:44.683Z,6.10
2018-11-20T05:24:45.049Z,6.20
2018-11-20T05:25:44.733Z,6.20
2018-11-20T05:26:44.697Z,6.20
2018-11-20T05:27:44.687Z,6.00
2018-11-20T05:28:44.683Z,6.00
2018-11-20T05:29:44.676Z,5.90
2018-11-20T05:30:44.680Z,6.00
2018-11-20T05:31:44.662Z,6.00
2018-11-20T05:32:44.639Z,6.29
2018-11-20T05:33:44.629Z,6.29
2018-11-20T05:34:45.464Z,6.29
2018-11-20T05:35:44.638Z,6.29
2018-11-20T05:36:44.604Z,6.29
2018-11-20T05:37:44.584Z,5.90
2018-11-20T05:38:44.575Z,6.00
2018-11-20T05:39:44.613Z,6.20
2018-11-20T05:40:44.913Z,6.10
2018-11-20T05:41:44.584Z,6.10
2018-11-20T05:42:44.562Z,6.10
2018-11-20T05:43:44.540Z,6.10
2018-11-20T05:44:44.531Z,5.90
2018-11-20T05:45:44.555Z,6.20
2018-11-20T05:46:44.913Z,5.90
2018-11-20T05:47:44.515Z,6.10
2018-11-20T05:48:44.540Z,6.10
2018-11-20T05:49:44.831Z,6.00
2018-11-20T05:50:44.816Z,6.10
2018-11-20T05:51:44.491Z,6.00
2018-11-20T05:52:44.478Z,5.80
2018-11-20T05:53:44.466Z,5.90
2018-11-20T05:54:44.839Z,6.10
2018-11-20T05:55:44.462Z,6.10
2018-11-20T05:56:44.493Z,6.20
2018-11-20T05:57:44.860Z,6.10
2018-11-20T05:58:44.444Z,5.90
2018-11-20T05:59:44.420Z,6.10
2018-11-20T06:00:44.458Z,5.80
2018-11-20T06:01:44.448Z,5.80
2018-11-20T06:02:44.431Z,5.80
2018-11-20T06:03:44.431Z,6.10
2018-11-20T06:04:44.393Z,6.10
2018-11-20T06:05:44.711Z,6.10
2018-11-20T06:06:44.717Z,6.00
2018-11-20T06:07:44.368Z,6.10
2018-11-20T06:08:44.385Z,6.00
2018-11-20T06:09:44.359Z,6.00
2018-11-20T06:10:44.689Z,6.10
2018-11-20T06:11:44.360Z,5.90
2018-11-20T06:12:44.719Z,5.71
2018-11-20T06:13:44.720Z,6.10
2018-11-20T06:14:44.310Z,6.00
2018-11-20T06:15:44.358Z,6.00
2018-11-20T06:16:44.638Z,6.00
2018-11-20T06:17:44.333Z,6.10
2018-11-20T06:18:44.699Z,5.90
2018-11-20T06:19:44.275Z,6.00
2018-11-20T06:20:44.602Z,6.20
2018-11-20T06:21:44.266Z,5.90
2018-11-20T06:22:44.289Z,6.10
2018-11-20T06:25:15.687Z,6.10
2018-11-20T06:26:15.318Z,6.00
2018-11-20T06:28:07.649Z,6.10
2018-11-20T06:29:07.622Z,6.00
2018-11-20T06:31:01.134Z,5.90
2018-11-20T06:31:59.992Z,5.80
2018-11-20T06:33:52.911Z,6.00
2018-11-20T06:34:52.386Z,6.20
2018-11-20T06:36:44.868Z,6.10
2018-11-20T06:37:44.686Z,6.20
2018-11-20T06:39:37.348Z,6.00
2018-11-20T06:40:37.023Z,6.10
2018-11-20T06:42:29.658Z,5.90
2018-11-20T06:43:29.321Z,6.00
2018-11-20T06:45:22.598Z,6.48
2018-11-20T06:46:21.703Z,6.48
2018-11-20T06:48:15.161Z,6.48
2018-11-20T06:49:13.994Z,6.38
2018-11-20T06:51:06.335Z,6.38
2018-11-20T06:52:06.358Z,6.38
2018-11-20T06:54:01.979Z,6.48
2018-11-20T06:54:58.699Z,6.38
2018-11-20T06:56:51.620Z,6.38
2018-11-20T06:57:51.329Z,6.38
2018-11-20T06:59:43.562Z,6.48
2018-11-20T07:00:43.321Z,6.48
2018-11-20T07:02:36.025Z,6.38
2018-11-20T07:03:35.700Z,6.58
2018-11-20T07:04:35.993Z,6.58
2018-11-20T07:05:35.633Z,6.48
2018-11-20T07:06:35.663Z,6.20
2018-11-20T07:07:36.184Z,6.48
2018-11-20T07:08:35.686Z,6.38
2018-11-20T07:09:35.653Z,6.58
2018-11-20T07:10:37.291Z,6.48
2018-11-20T07:11:35.621Z,6.20
2018-11-20T07:12:35.587Z,6.38
2018-11-20T07:13:35.966Z,6.29
2018-11-20T07:14:36.745Z,6.20
2018-11-20T07:15:35.770Z,6.20
2018-11-20T07:16:35.660Z,6.20
2018-11-20T07:17:35.578Z,6.38
2018-11-20T07:18:35.911Z,6.00
2018-11-20T07:19:35.888Z,6.29
2018-11-20T07:20:35.864Z,6.48
2018-11-20T07:21:35.546Z,6.48
2018-11-20T07:22:35.609Z,6.38
2018-11-20T07:23:35.547Z,6.38
2018-11-20T07:24:35.543Z,6.10
2018-11-20T07:25:35.502Z,6.48
2018-11-20T07:26:35.839Z,6.38
2018-11-20T07:27:35.823Z,6.58
2018-11-20T07:28:35.515Z,6.58
2018-11-20T07:29:35.608Z,6.58
2018-11-20T07:30:35.515Z,6.38
2018-11-20T07:31:35.595Z,6.38
2018-11-20T07:32:35.483Z,6.48
2018-11-20T07:33:35.817Z,6.29
2018-11-20T07:34:35.790Z,6.10
2018-11-20T07:35:35.780Z,6.29
2018-11-20T07:36:35.823Z,6.48
2018-11-20T07:37:35.409Z,6.48
2018-11-20T07:39:35.770Z,6.29
2018-11-20T07:40:35.387Z,6.00
2018-11-20T07:41:35.373Z,6.38
2018-11-20T07:42:35.380Z,6.48
2018-11-20T07:43:35.500Z,6.58
2018-11-20T07:44:35.350Z,6.77
2018-11-20T07:45:35.393Z,6.77
2018-11-20T07:46:35.376Z,6.77
2018-11-20T07:47:35.347Z,6.77
2018-11-20T07:48:35.658Z,6.77
2018-11-20T07:49:35.364Z,6.77
2018-11-20T07:50:35.645Z,6.77
2018-11-20T07:51:35.673Z,6.49
2018-11-20T07:52:35.911Z,6.48
2018-11-20T07:55:06.958Z,6.87
2018-11-20T07:56:06.786Z,7.06
2018-11-20T07:57:59.041Z,6.48
2018-11-20T07:58:59.088Z,6.48
2018-11-20T08:00:52.683Z,6.68
2018-11-20T08:01:52.392Z,6.48
2018-11-20T08:03:44.361Z,6.68
2018-11-20T08:04:44.395Z,6.58
2018-11-20T08:06:36.921Z,6.48
2018-11-20T08:07:36.732Z,6.68
2018-11-20T08:09:29.052Z,6.77
2018-11-20T08:10:29.063Z,6.87
2018-11-20T08:12:21.694Z,6.68
2018-11-20T08:13:21.384Z,6.77
2018-11-20T08:15:13.863Z,6.77
2018-11-20T08:16:14.088Z,6.68
2018-11-20T08:17:13.757Z,6.68
2018-11-20T08:18:13.740Z,6.77
2018-11-20T08:19:13.749Z,6.87
2018-11-20T08:20:13.732Z,6.29
2018-11-20T08:21:13.690Z,6.29
2018-11-20T08:22:13.725Z,6.58
2018-11-20T08:23:13.675Z,6.58
2018-11-20T08:24:13.707Z,6.58
2018-11-20T08:25:13.698Z,6.58
2018-11-20T08:26:13.882Z,6.68
2018-11-20T08:27:13.646Z,6.58
2018-11-20T08:28:13.686Z,6.77
2018-11-20T08:29:13.968Z,6.68
2018-11-20T08:30:13.663Z,6.38
2018-11-20T08:31:13.656Z,6.29
2018-11-20T08:32:13.619Z,6.58
2018-11-20T08:33:13.659Z,6.58
2018-11-20T08:34:13.690Z,6.48
2018-11-20T08:35:13.668Z,6.48
2018-11-20T08:36:13.585Z,6.48
2018-11-20T08:37:13.576Z,6.38
2018-11-20T08:38:13.931Z,6.29
2018-11-20T08:39:14.378Z,6.38
2018-11-20T08:40:13.586Z,6.38
2018-11-20T08:41:13.582Z,6.68
2018-11-20T08:42:13.626Z,6.29
2018-11-20T08:43:13.542Z,6.68
2018-11-20T08:44:13.591Z,6.48
2018-11-20T08:45:13.564Z,6.58
2018-11-20T08:46:13.536Z,6.29
2018-11-20T08:47:13.882Z,6.29
2018-11-20T08:48:13.898Z,6.00
2018-11-20T08:49:13.522Z,6.10
2018-11-20T08:50:13.493Z,6.10
2018-11-20T08:51:13.487Z,6.00
2018-11-20T08:52:13.479Z,6.00
2018-11-20T08:53:13.462Z,6.10
2018-11-20T08:54:13.504Z,6.10
2018-11-20T08:55:13.442Z,6.00
2018-11-20T08:56:13.771Z,6.00
2018-11-20T08:57:13.468Z,6.29
2018-11-20T08:58:13.789Z,6.00
2018-11-20T08:59:13.779Z,6.10
2018-11-20T09:00:13.737Z,5.90
2018-11-20T09:01:13.414Z,6.00
2018-11-20T09:02:13.419Z,6.10
2018-11-20T09:03:13.451Z,6.20
2018-11-20T09:04:13.397Z,6.00
2018-11-20T09:05:13.417Z,6.00
2018-11-20T09:06:13.392Z,5.90
2018-11-20T09:07:13.371Z,6.00
2018-11-20T09:08:13.395Z,6.00
2018-11-20T09:09:13.376Z,6.00
2018-11-20T09:10:13.728Z,6.29
2018-11-20T09:11:13.364Z,6.10
2018-11-20T09:12:13.369Z,6.10
2018-11-20T09:13:13.659Z,6.10
2018-11-20T09:14:13.308Z,6.10
2018-11-20T09:15:13.355Z,6.00
2018-11-20T09:16:13.627Z,6.10
2018-11-20T09:17:13.675Z,6.10
2018-11-20T09:18:13.612Z,5.90
2018-11-20T09:19:13.280Z,6.00
2018-11-20T09:20:13.276Z,6.00
2018-11-20T09:21:13.369Z,6.00
2018-11-20T09:22:13.624Z,6.29
2018-11-20T09:23:13.260Z,6.29
2018-11-20T09:24:13.281Z,6.00
2018-11-20T09:25:13.274Z,6.20
2018-11-20T09:26:13.223Z,6.20
2018-11-20T09:27:13.578Z,5.90
2018-11-20T09:28:13.246Z,5.90
2018-11-20T09:29:13.211Z,6.00
2018-11-20T09:30:13.579Z,6.10
2018-11-20T09:31:13.201Z,6.10
2018-11-20T09:32:13.190Z,6.00
2018-11-20T09:33:13.546Z,6.00
2018-11-20T09:34:13.587Z,6.00
2018-11-20T09:35:13.302Z,6.00
2018-11-20T09:36:13.186Z,6.10
2018-11-20T09:37:13.159Z,6.10
2018-11-20T09:38:13.135Z,5.90
2018-11-20T09:39:13.130Z,6.20
2018-11-20T09:40:13.150Z,6.10
2018-11-20T09:41:13.452Z,5.90
2018-11-20T09:42:13.446Z,6.10
2018-11-20T09:43:13.108Z,6.00
2018-11-20T09:44:13.092Z,6.20
2018-11-20T09:45:13.082Z,6.10
2018-11-20T09:46:13.085Z,5.90
2018-11-20T09:47:13.152Z,6.10
2018-11-20T09:48:13.070Z,6.10
2018-11-20T09:49:13.423Z,5.90
2018-11-20T09:50:13.384Z,5.90
2018-11-20T09:51:13.091Z,6.10
2018-11-20T09:52:13.394Z,5.90
2018-11-20T09:53:13.398Z,6.00
2018-11-20T09:54:13.114Z,5.90
2018-11-20T09:55:13.055Z,5.90
2018-11-20T09:56:13.041Z,5.90
2018-11-20T09:57:13.006Z,6.10
2018-11-20T09:58:13.038Z,6.00
2018-11-20T09:59:13.015Z,5.80
2018-11-20T10:00:13.017Z,5.90
2018-11-20T10:01:13.004Z,5.80
2018-11-20T10:02:13.305Z,5.80
2018-11-20T10:03:12.958Z,5.80
2018-11-20T10:04:13.301Z,5.90
2018-11-20T10:05:12.957Z,5.71
2018-11-20T10:06:12.974Z,5.90
2018-11-20T10:07:12.962Z,6.10
2018-11-20T10:08:13.282Z,6.10
2018-11-20T10:09:12.920Z,6.10
2018-11-20T10:10:12.907Z,6.10
2018-11-20T10:11:12.938Z,6.00
2018-11-20T10:12:13.220Z,6.10
2018-11-20T10:13:13.218Z,6.10
2018-11-20T10:14:12.984Z,6.00
2018-11-20T10:15:13.346Z,6.10
2018-11-20T10:16:12.883Z,6.10
2018-11-20T10:17:12.866Z,6.10
2018-11-20T10:18:12.876Z,6.10
2018-11-20T10:19:13.198Z,6.10
2018-11-20T10:20:13.190Z,6.10
2018-11-20T10:21:13.202Z,6.10
2018-11-20T10:22:13.273Z,6.00
2018-11-20T10:23:13.160Z,6.20
2018-11-20T10:24:12.813Z,6.00
2018-11-20T10:25:12.896Z,6.20
2018-11-20T10:26:12.879Z,6.10
2018-11-20T10:27:12.797Z,6.00
2018-11-20T10:28:13.153Z,6.00
2018-11-20T10:29:12.813Z,6.00
2018-11-20T10:30:13.133Z,6.20
2018-11-20T10:31:12.755Z,6.20
2018-11-20T10:32:12.799Z,6.20
2018-11-20T10:33:12.755Z,6.10
2018-11-20T10:34:13.127Z,6.20
2018-11-20T10:35:12.731Z,6.20
2018-11-20T10:36:12.721Z,6.10
2018-11-20T10:37:12.720Z,6.00
2018-11-20T10:38:12.709Z,6.00
2018-11-20T10:39:12.736Z,6.00
2018-11-20T10:40:13.096Z,5.90
2018-11-20T10:41:12.713Z,6.00
2018-11-20T10:42:12.696Z,6.00
2018-11-20T10:43:12.708Z,6.10
2018-11-20T10:44:12.709Z,6.00
2018-11-20T10:45:12.680Z,6.00
2018-11-20T10:46:12.759Z,6.10
2018-11-20T10:47:13.022Z,6.00
2018-11-20T10:48:12.670Z,6.00
2018-11-20T10:49:12.967Z,6.10
2018-11-20T10:50:12.616Z,6.00
2018-11-20T10:51:12.676Z,6.10
2018-11-20T10:52:12.977Z,6.10
2018-11-20T10:53:12.646Z,6.10
2018-11-20T10:54:12.613Z,6.00
2018-11-20T10:55:12.667Z,6.10
2018-11-20T10:56:12.944Z,5.90
2018-11-20T10:57:12.944Z,6.00
2018-11-20T10:58:12.590Z,6.00
2018-11-20T10:59:12.564Z,6.10
2018-11-20T11:00:12.898Z,6.00
2018-11-20T11:01:12.569Z,6.10
2018-11-20T11:02:12.535Z,6.00
2018-11-20T11:03:12.856Z,6.10
2018-11-20T11:04:12.570Z,6.00
2018-11-20T11:05:12.880Z,6.00
2018-11-20T11:06:12.562Z,6.00
2018-11-20T11:07:13.095Z,6.00
2018-11-20T11:08:12.596Z,6.00
2018-11-20T11:09:12.493Z,6.10
2018-11-20T11:10:12.506Z,5.90
2018-11-20T11:11:12.474Z,6.10
2018-11-20T11:12:12.536Z,6.00
2018-11-20T11:13:12.457Z,6.20
2018-11-20T11:14:12.475Z,6.00
2018-11-20T11:15:12.798Z,6.00
2018-11-20T11:16:12.467Z,5.90
2018-11-20T11:17:12.433Z,6.00
2018-11-20T11:18:12.459Z,6.00
2018-11-20T11:19:12.417Z,5.62
2018-11-20T11:20:12.794Z,5.80
2018-11-20T11:21:12.402Z,6.00
2018-11-20T11:22:12.428Z,5.90
2018-11-20T11:23:12.436Z,5.90
2018-11-20T11:24:12.407Z,5.71
2018-11-20T11:25:12.697Z,5.71
2018-11-20T11:26:12.727Z,6.10
2018-11-20T11:27:12.363Z,5.80
2018-11-20T11:28:12.359Z,5.80
2018-11-20T11:29:12.337Z,6.00
2018-11-20T11:30:12.375Z,5.80
2018-11-20T11:31:12.683Z,5.80
2018-11-20T11:32:12.313Z,5.90
2018-11-20T11:33:12.656Z,5.90
2018-11-20T11:34:12.304Z,6.00
2018-11-20T11:35:12.326Z,6.00
2018-11-20T11:36:12.291Z,5.80
2018-11-20T11:37:12.320Z,5.81
2018-11-20T11:38:12.680Z,5.71
2018-11-20T11:39:12.307Z,5.62
2018-11-20T11:40:12.296Z,5.71
2018-11-20T11:41:12.333Z,5.71
2018-11-20T11:42:12.298Z,5.71
2018-11-20T11:43:12.238Z,5.71
2018-11-20T11:44:12.262Z,5.71
2018-11-20T11:45:12.263Z,5.61
2018-11-20T11:46:12.241Z,5.61
2018-11-20T11:47:12.238Z,5.80
2018-11-20T11:48:12.207Z,5.90
2018-11-20T11:49:12.206Z,6.00
2018-11-20T11:50:12.210Z,5.90
2018-11-20T11:51:12.192Z,6.00
2018-11-20T11:52:12.203Z,5.90
2018-11-20T11:53:12.193Z,6.10
2018-11-20T11:54:12.184Z,6.00
2018-11-20T11:55:12.514Z,5.90
2018-11-20T11:56:12.193Z,6.00
2018-11-20T11:57:12.162Z,5.80
2018-11-20T11:58:12.177Z,6.00
2018-11-20T11:59:12.157Z,6.00
2018-11-20T12:00:12.161Z,6.00
2018-11-20T12:01:12.103Z,5.80
2018-11-20T12:03:12.125Z,5.90
2018-11-20T12:04:12.087Z,5.71
2018-11-20T12:05:12.095Z,5.90
2018-11-20T12:06:12.079Z,5.80
2018-11-20T12:07:12.088Z,5.90
2018-11-20T12:08:12.069Z,5.80
2018-11-20T12:09:12.054Z,5.80
2018-11-20T12:10:12.085Z,5.71
2018-11-20T12:11:12.072Z,5.71
2018-11-20T12:12:12.059Z,5.71
2018-11-20T12:14:12.362Z,5.80
2018-11-20T12:15:12.385Z,5.61
2018-11-20T12:16:11.991Z,5.61
2018-11-20T12:17:12.031Z,5.80
2018-11-20T12:18:11.989Z,5.42
2018-11-20T12:19:11.994Z,5.22
2018-11-20T12:20:12.303Z,4.93
2018-11-20T12:21:11.964Z,5.32
2018-11-20T12:22:12.009Z,5.32
2018-11-20T12:23:11.983Z,5.13
2018-11-20T12:24:11.964Z,5.03
2018-11-20T12:25:11.980Z,4.83
2018-11-20T12:26:11.973Z,5.13
2018-11-20T12:27:12.289Z,4.83
2018-11-20T12:28:11.918Z,5.42
2018-11-20T12:29:12.273Z,4.93
2018-11-20T12:30:13.448Z,5.22
2018-11-20T12:31:11.896Z,5.03
2018-11-20T12:32:11.911Z,5.13
2018-11-20T12:33:11.876Z,5.32
2018-11-20T12:34:11.862Z,5.13
2018-11-20T12:35:13.615Z,5.13
2018-11-20T12:36:12.293Z,5.32
2018-11-20T12:37:11.886Z,4.83
2018-11-20T12:38:11.846Z,4.93
2018-11-20T12:39:11.836Z,5.03
2018-11-20T12:40:11.844Z,5.13
2018-11-20T12:41:11.834Z,5.03
2018-11-20T12:42:11.820Z,4.93
2018-11-20T12:43:12.144Z,5.03
2018-11-20T12:44:11.846Z,4.83
2018-11-20T12:45:13.526Z,5.03
2018-11-20T12:46:13.209Z,5.03
2018-11-20T12:47:15.143Z,5.13
2018-11-20T12:48:11.773Z,5.03
2018-11-20T12:49:11.805Z,5.03
2018-11-20T12:50:11.759Z,5.03
2018-11-20T12:51:11.779Z,5.22
2018-11-20T12:52:11.778Z,4.74
2018-11-20T12:53:12.098Z,4.93
2018-11-20T12:54:14.789Z,4.93
2018-11-20T12:55:12.086Z,4.93
2018-11-20T12:56:11.748Z,4.83
2018-11-20T12:57:11.747Z,5.03
2018-11-20T12:58:13.883Z,4.74
2018-11-20T12:59:11.734Z,4.64
2018-11-20T13:00:11.679Z,4.64
2018-11-20T13:01:11.686Z,4.64
2018-11-20T13:02:11.709Z,4.55
2018-11-20T13:03:11.697Z,4.83
2018-11-20T13:04:11.692Z,4.64
2018-11-20T13:05:11.981Z,4.83
2018-11-20T13:06:11.647Z,4.74
2018-11-20T13:07:12.021Z,4.64
2018-11-20T13:08:11.984Z,4.74
2018-11-20T13:09:11.949Z,4.64
2018-11-20T13:10:11.612Z,4.55
2018-11-20T13:11:11.652Z,4.64
2018-11-20T13:12:11.604Z,4.64
2018-11-20T13:13:11.599Z,4.55
2018-11-20T13:14:11.592Z,4.55
2018-11-20T13:15:11.604Z,4.55
2018-11-20T13:16:11.591Z,4.64
2018-11-20T13:17:13.573Z,4.45
2018-11-20T13:18:11.579Z,4.74
2018-11-20T13:19:11.547Z,4.35
2018-11-20T13:20:11.575Z,4.35
2018-11-20T13:21:11.873Z,4.25
2018-11-20T13:22:11.538Z,4.35
2018-11-20T13:23:11.521Z,4.55
2018-11-20T13:24:13.537Z,4.35
2018-11-20T13:25:11.540Z,4.35
2018-11-20T13:26:11.537Z,4.35
2018-11-20T13:27:11.494Z,4.16
2018-11-20T13:28:11.526Z,4.35
2018-11-20T13:29:11.801Z,4.25
2018-11-20T13:30:11.465Z,4.45
2018-11-20T13:31:11.459Z,4.25
2018-11-20T13:32:11.492Z,4.35
2018-11-20T13:33:14.025Z,4.25
2018-11-20T13:34:11.446Z,4.06
2018-11-20T13:35:11.429Z,4.35
2018-11-20T13:36:11.439Z,4.16
2018-11-20T13:37:11.862Z,3.96
2018-11-20T13:38:11.711Z,3.87
2018-11-20T13:39:11.834Z,3.96
2018-11-20T13:40:11.401Z,4.06
2018-11-20T13:41:11.418Z,4.06
2018-11-20T13:42:11.823Z,4.06
2018-11-20T13:43:11.834Z,4.06
2018-11-20T13:44:11.926Z,4.06
2018-11-20T13:45:11.405Z,4.06
2018-11-20T13:46:11.387Z,4.16
2018-11-20T13:47:11.915Z,4.06
2018-11-20T13:48:11.386Z,4.16
2018-11-20T13:49:11.975Z,4.16
2018-11-20T13:50:11.852Z,4.25
2018-11-20T13:51:11.836Z,4.16
2018-11-20T13:52:11.920Z,3.96
2018-11-20T13:53:11.951Z,4.06
2018-11-20T13:54:11.848Z,4.06
2018-11-20T13:55:11.932Z,4.16
2018-11-20T13:56:11.278Z,4.25
2018-11-20T13:57:11.285Z,4.06
2018-11-20T13:58:11.277Z,4.06
2018-11-20T13:59:11.302Z,3.67
2018-11-20T14:00:12.008Z,3.87
2018-11-20T14:01:11.275Z,3.87
2018-11-20T14:02:11.625Z,3.87
2018-11-20T14:03:11.573Z,3.87
2018-11-20T14:04:11.244Z,3.58